sensor_id;sensor_type;location;lat;lon;timestamp;temperature;humidity
18175;DHT22;9212;50.894;16.714;2023-03-24T00:00:16;14.00;99.90
18175;DHT22;9212;50.894;16.714;2023-03-24T00:02:44;13.90;99.90
18175;DHT22;9212;50.894;16.714;2023-03-24T00:05:15;14.20;99.90
18175;DHT22;9212;50.894;16.714;2023-03-24T00:07:43;13.80;99.90
18175;DHT22;9212;50.894;16.714;2023-03-24T00:10:12;14.10;99.90
18175;DHT22;9212;50.894;16.714;2023-03-24T00:12:41;14.50;99.90
18175;DHT22;9212;50.894;16.714;2023-03-24T00:15:11;14.20;99.90
18175;DHT22;9212;50.894;16.714;2023-03-24T00:17:38;14.10;99.90
18175;DHT22;9212;50.894;16.714;2023-03-24T00:20:08;14.20;99.90
18175;DHT22;9212;50.894;16.714;2023-03-24T00:22:39;14.50;99.90
18175;DHT22;9212;50.894;16.714;2023-03-24T00:25:08;14.40;99.90
18175;DHT22;9212;50.894;16.714;2023-03-24T00:27:35;13.80;99.90
18175;DHT22;9212;50.894;16.714;2023-03-24T00:30:06;14.00;99.90
18175;DHT22;9212;50.894;16.714;2023-03-24T00:32:35;14.60;99.90
18175;DHT22;9212;50.894;16.714;2023-03-24T00:35:04;14.00;99.90
18175;DHT22;9212;50.894;16.714;2023-03-24T00:37:33;14.10;99.90
18175;DHT22;9212;50.894;16.714;2023-03-24T00:40:02;14.00;99.90
18175;DHT22;9212;50.894;16.714;2023-03-24T00:42:32;13.80;99.90
18175;DHT22;9212;50.894;16.714;2023-03-24T00:45:00;14.00;99.90
18175;DHT22;9212;50.894;16.714;2023-03-24T00:47:30;14.40;99.90
18175;DHT22;9212;50.894;16.714;2023-03-24T00:50:02;13.80;99.90
18175;DHT22;9212;50.894;16.714;2023-03-24T00:52:29;13.50;99.90
18175;DHT22;9212;50.894;16.714;2023-03-24T00:55:00;13.80;99.90
18175;DHT22;9212;50.894;16.714;2023-03-24T00:57:28;13.80;99.90
18175;DHT22;9212;50.894;16.714;2023-03-24T01:00:01;13.70;99.90
18175;DHT22;9212;50.894;16.714;2023-03-24T01:02:36;13.20;99.90
18175;DHT22;9212;50.894;16.714;2023-03-24T01:05:04;13.40;99.90
18175;DHT22;9212;50.894;16.714;2023-03-24T01:07:31;13.30;99.90
18175;DHT22;9212;50.894;16.714;2023-03-24T01:09:58;13.30;99.90
18175;DHT22;9212;50.894;16.714;2023-03-24T01:12:28;14.00;99.90
18175;DHT22;9212;50.894;16.714;2023-03-24T01:14:56;13.50;99.90
18175;DHT22;9212;50.894;16.714;2023-03-24T01:19:53;13.30;99.90
18175;DHT22;9212;50.894;16.714;2023-03-24T01:22:20;13.20;99.90
18175;DHT22;9212;50.894;16.714;2023-03-24T01:24:48;13.20;99.90
18175;DHT22;9212;50.894;16.714;2023-03-24T01:27:16;13.00;99.90
18175;DHT22;9212;50.894;16.714;2023-03-24T01:29:44;12.80;99.90
18175;DHT22;9212;50.894;16.714;2023-03-24T01:32:11;12.80;99.90
18175;DHT22;9212;50.894;16.714;2023-03-24T01:34:38;12.60;99.90
18175;DHT22;9212;50.894;16.714;2023-03-24T01:37:07;12.60;99.90
18175;DHT22;9212;50.894;16.714;2023-03-24T01:39:34;12.50;99.90
18175;DHT22;9212;50.894;16.714;2023-03-24T01:42:01;12.40;99.90
18175;DHT22;9212;50.894;16.714;2023-03-24T01:44:31;12.40;99.90
18175;DHT22;9212;50.894;16.714;2023-03-24T01:46:59;12.50;99.90
18175;DHT22;9212;50.894;16.714;2023-03-24T01:49:30;12.40;99.90
18175;DHT22;9212;50.894;16.714;2023-03-24T01:52:01;12.30;99.90
18175;DHT22;9212;50.894;16.714;2023-03-24T01:54:33;12.40;99.90
18175;DHT22;9212;50.894;16.714;2023-03-24T01:57:04;12.60;99.90
18175;DHT22;9212;50.894;16.714;2023-03-24T01:59:34;12.50;99.90
18175;DHT22;9212;50.894;16.714;2023-03-24T02:02:04;12.40;99.90
18175;DHT22;9212;50.894;16.714;2023-03-24T02:04:34;12.70;99.90
18175;DHT22;9212;50.894;16.714;2023-03-24T02:07:07;12.20;99.90
18175;DHT22;9212;50.894;16.714;2023-03-24T02:09:37;12.90;99.90
18175;DHT22;9212;50.894;16.714;2023-03-24T02:12:05;12.30;99.90
18175;DHT22;9212;50.894;16.714;2023-03-24T02:14:32;13.00;99.90
18175;DHT22;9212;50.894;16.714;2023-03-24T02:17:17;12.90;99.90
18175;DHT22;9212;50.894;16.714;2023-03-24T02:23:04;13.60;99.90
18175;DHT22;9212;50.894;16.714;2023-03-24T02:26:04;13.70;99.90
18175;DHT22;9212;50.894;16.714;2023-03-24T02:28:42;13.80;99.90
18175;DHT22;9212;50.894;16.714;2023-03-24T02:31:27;14.00;99.90
18175;DHT22;9212;50.894;16.714;2023-03-24T02:34:30;14.30;99.90
18175;DHT22;9212;50.894;16.714;2023-03-24T02:37:25;14.40;99.90
18175;DHT22;9212;50.894;16.714;2023-03-24T02:39:59;14.60;99.90
18175;DHT22;9212;50.894;16.714;2023-03-24T02:42:36;14.60;99.90
18175;DHT22;9212;50.894;16.714;2023-03-24T02:45:17;14.50;99.90
18175;DHT22;9212;50.894;16.714;2023-03-24T02:47:51;14.20;99.90
18175;DHT22;9212;50.894;16.714;2023-03-24T02:50:25;14.50;99.90
18175;DHT22;9212;50.894;16.714;2023-03-24T02:53:04;14.60;99.90
18175;DHT22;9212;50.894;16.714;2023-03-24T02:55:41;14.60;99.90
18175;DHT22;9212;50.894;16.714;2023-03-24T02:58:13;12.40;99.90
18175;DHT22;9212;50.894;16.714;2023-03-24T03:00:46;14.40;99.90
18175;DHT22;9212;50.894;16.714;2023-03-24T03:03:18;14.20;99.90
18175;DHT22;9212;50.894;16.714;2023-03-24T03:05:50;14.00;99.90
18175;DHT22;9212;50.894;16.714;2023-03-24T03:08:20;14.00;99.90
18175;DHT22;9212;50.894;16.714;2023-03-24T03:10:51;13.90;99.90
18175;DHT22;9212;50.894;16.714;2023-03-24T03:13:24;13.80;99.90
18175;DHT22;9212;50.894;16.714;2023-03-24T03:15:54;13.80;99.90
18175;DHT22;9212;50.894;16.714;2023-03-24T03:18:26;13.80;99.90
18175;DHT22;9212;50.894;16.714;2023-03-24T03:20:59;13.90;99.90
18175;DHT22;9212;50.894;16.714;2023-03-24T03:23:32;13.40;99.90
18175;DHT22;9212;50.894;16.714;2023-03-24T03:26:04;13.60;99.90
18175;DHT22;9212;50.894;16.714;2023-03-24T03:28:37;14.10;99.90
18175;DHT22;9212;50.894;16.714;2023-03-24T03:31:07;13.80;99.90
18175;DHT22;9212;50.894;16.714;2023-03-24T03:33:43;14.40;99.90
18175;DHT22;9212;50.894;16.714;2023-03-24T03:36:19;14.00;99.90
18175;DHT22;9212;50.894;16.714;2023-03-24T03:38:53;13.90;99.90
18175;DHT22;9212;50.894;16.714;2023-03-24T03:41:23;13.90;99.90
18175;DHT22;9212;50.894;16.714;2023-03-24T03:43:51;13.80;99.90
18175;DHT22;9212;50.894;16.714;2023-03-24T03:46:18;13.80;99.90
18175;DHT22;9212;50.894;16.714;2023-03-24T03:48:46;14.00;99.90
18175;DHT22;9212;50.894;16.714;2023-03-24T03:51:14;13.80;99.90
18175;DHT22;9212;50.894;16.714;2023-03-24T03:53:46;14.60;99.90
18175;DHT22;9212;50.894;16.714;2023-03-24T03:56:14;13.80;99.90
18175;DHT22;9212;50.894;16.714;2023-03-24T03:58:44;13.80;99.90
18175;DHT22;9212;50.894;16.714;2023-03-24T04:01:15;13.80;99.90
18175;DHT22;9212;50.894;16.714;2023-03-24T04:04:01;13.90;99.90
18175;DHT22;9212;50.894;16.714;2023-03-24T04:06:36;13.40;99.90
18175;DHT22;9212;50.894;16.714;2023-03-24T04:09:18;13.60;99.90
18175;DHT22;9212;50.894;16.714;2023-03-24T04:12:17;13.50;99.90
18175;DHT22;9212;50.894;16.714;2023-03-24T04:15:11;13.50;99.90
18175;DHT22;9212;50.894;16.714;2023-03-24T04:17:52;14.00;99.90
18175;DHT22;9212;50.894;16.714;2023-03-24T04:20:25;13.60;99.90
18175;DHT22;9212;50.894;16.714;2023-03-24T04:23:03;13.50;99.90
18175;DHT22;9212;50.894;16.714;2023-03-24T04:25:42;13.30;99.90
18175;DHT22;9212;50.894;16.714;2023-03-24T04:28:20;13.50;99.90
18175;DHT22;9212;50.894;16.714;2023-03-24T04:30:53;13.50;99.90
18175;DHT22;9212;50.894;16.714;2023-03-24T04:33:30;13.40;99.90
18175;DHT22;9212;50.894;16.714;2023-03-24T04:36:07;14.00;99.90
18175;DHT22;9212;50.894;16.714;2023-03-24T04:38:45;13.10;99.90
18175;DHT22;9212;50.894;16.714;2023-03-24T04:41:15;13.80;99.90
18175;DHT22;9212;50.894;16.714;2023-03-24T04:43:45;13.40;99.90
18175;DHT22;9212;50.894;16.714;2023-03-24T04:46:15;13.40;99.90
18175;DHT22;9212;50.894;16.714;2023-03-24T04:48:43;13.40;99.90
18175;DHT22;9212;50.894;16.714;2023-03-24T04:51:14;13.30;99.90
18175;DHT22;9212;50.894;16.714;2023-03-24T04:53:41;13.60;99.90
18175;DHT22;9212;50.894;16.714;2023-03-24T05:01:35;13.80;99.90
18175;DHT22;9212;50.894;16.714;2023-03-24T05:04:03;13.40;99.90
18175;DHT22;9212;50.894;16.714;2023-03-24T05:08:58;13.40;99.90
18175;DHT22;9212;50.894;16.714;2023-03-24T05:11:25;13.50;99.90
18175;DHT22;9212;50.894;16.714;2023-03-24T05:16:20;13.50;99.90
18175;DHT22;9212;50.894;16.714;2023-03-24T05:18:48;14.00;99.90
18175;DHT22;9212;50.894;16.714;2023-03-24T05:21:16;13.60;99.90
18175;DHT22;9212;50.894;16.714;2023-03-24T05:23:45;13.60;99.90
18175;DHT22;9212;50.894;16.714;2023-03-24T05:26:12;13.70;99.90
18175;DHT22;9212;50.894;16.714;2023-03-24T05:28:39;14.00;99.90
18175;DHT22;9212;50.894;16.714;2023-03-24T05:31:06;13.80;99.90
18175;DHT22;9212;50.894;16.714;2023-03-24T05:33:33;14.10;99.90
18175;DHT22;9212;50.894;16.714;2023-03-24T05:36:02;14.00;99.90
18175;DHT22;9212;50.894;16.714;2023-03-24T05:38:29;14.00;99.90
18175;DHT22;9212;50.894;16.714;2023-03-24T05:40:56;14.10;99.90
18175;DHT22;9212;50.894;16.714;2023-03-24T05:43:24;14.20;99.90
18175;DHT22;9212;50.894;16.714;2023-03-24T05:45:51;14.20;99.90
18175;DHT22;9212;50.894;16.714;2023-03-24T05:48:18;14.20;99.90
18175;DHT22;9212;50.894;16.714;2023-03-24T05:50:45;14.20;99.90
18175;DHT22;9212;50.894;16.714;2023-03-24T05:53:14;14.20;99.90
18175;DHT22;9212;50.894;16.714;2023-03-24T05:55:41;13.70;99.90
18175;DHT22;9212;50.894;16.714;2023-03-24T06:00:36;14.20;99.90
18175;DHT22;9212;50.894;16.714;2023-03-24T06:03:04;14.50;99.90
18175;DHT22;9212;50.894;16.714;2023-03-24T06:10:27;14.60;99.90
18175;DHT22;9212;50.894;16.714;2023-03-24T06:17:52;14.70;99.90
18175;DHT22;9212;50.894;16.714;2023-03-24T06:20:20;14.80;99.90
18175;DHT22;9212;50.894;16.714;2023-03-24T06:22:47;14.80;99.90
18175;DHT22;9212;50.894;16.714;2023-03-24T06:25:16;14.60;99.90
18175;DHT22;9212;50.894;16.714;2023-03-24T06:27:46;14.10;99.90
18175;DHT22;9212;50.894;16.714;2023-03-24T06:30:14;14.70;99.90
18175;DHT22;9212;50.894;16.714;2023-03-24T06:32:42;14.50;99.90
18175;DHT22;9212;50.894;16.714;2023-03-24T06:35:11;14.70;99.90
18175;DHT22;9212;50.894;16.714;2023-03-24T06:37:39;14.80;99.90
18175;DHT22;9212;50.894;16.714;2023-03-24T06:40:07;14.80;99.90
18175;DHT22;9212;50.894;16.714;2023-03-24T06:45:08;14.60;99.90
18175;DHT22;9212;50.894;16.714;2023-03-24T06:47:35;14.80;99.90
18175;DHT22;9212;50.894;16.714;2023-03-24T06:50:02;14.50;99.90
18175;DHT22;9212;50.894;16.714;2023-03-24T06:52:30;14.50;99.90
18175;DHT22;9212;50.894;16.714;2023-03-24T06:57:24;14.60;99.90
18175;DHT22;9212;50.894;16.714;2023-03-24T06:59:52;15.00;99.90
18175;DHT22;9212;50.894;16.714;2023-03-24T07:02:20;14.60;99.90
18175;DHT22;9212;50.894;16.714;2023-03-24T07:04:48;14.30;99.90
18175;DHT22;9212;50.894;16.714;2023-03-24T07:07:15;14.40;99.90
18175;DHT22;9212;50.894;16.714;2023-03-24T07:12:10;14.60;99.90
18175;DHT22;9212;50.894;16.714;2023-03-24T07:14:37;14.70;99.90
18175;DHT22;9212;50.894;16.714;2023-03-24T07:17:04;14.50;99.90
18175;DHT22;9212;50.894;16.714;2023-03-24T07:19:33;15.10;99.90
18175;DHT22;9212;50.894;16.714;2023-03-24T07:22:00;14.80;99.90
18175;DHT22;9212;50.894;16.714;2023-03-24T07:24:27;14.60;99.90
18175;DHT22;9212;50.894;16.714;2023-03-24T07:26:54;14.60;99.90
18175;DHT22;9212;50.894;16.714;2023-03-24T07:29:21;15.20;99.90
18175;DHT22;9212;50.894;16.714;2023-03-24T07:31:49;14.60;99.90
18175;DHT22;9212;50.894;16.714;2023-03-24T07:34:17;14.70;99.90
18175;DHT22;9212;50.894;16.714;2023-03-24T07:36:46;14.60;99.90
18175;DHT22;9212;50.894;16.714;2023-03-24T07:39:13;14.90;99.90
18175;DHT22;9212;50.894;16.714;2023-03-24T07:41:40;14.90;99.90
18175;DHT22;9212;50.894;16.714;2023-03-24T07:44:07;14.90;99.90
18175;DHT22;9212;50.894;16.714;2023-03-24T07:49:02;15.00;99.90
18175;DHT22;9212;50.894;16.714;2023-03-24T07:53:57;14.30;99.90
18175;DHT22;9212;50.894;16.714;2023-03-24T07:56:26;15.40;99.90
18175;DHT22;9212;50.894;16.714;2023-03-24T08:11:15;16.60;99.90
18175;DHT22;9212;50.894;16.714;2023-03-24T08:23:31;18.30;99.90
18175;DHT22;9212;50.894;16.714;2023-03-24T08:40:56;19.90;99.90
18175;DHT22;9212;50.894;16.714;2023-03-24T09:32:44;20.40;99.90
18175;DHT22;9212;50.894;16.714;2023-03-24T10:07:48;20.10;99.90
18175;DHT22;9212;50.894;16.714;2023-03-24T10:52:43;19.50;99.90
18175;DHT22;9212;50.894;16.714;2023-03-24T11:12:57;21.30;99.90
18175;DHT22;9212;50.894;16.714;2023-03-24T11:40:21;22.10;99.90
18175;DHT22;9212;50.894;16.714;2023-03-24T11:42:50;22.10;99.90
18175;DHT22;9212;50.894;16.714;2023-03-24T11:50:22;21.40;99.90
18175;DHT22;9212;50.894;16.714;2023-03-24T11:55:31;21.70;99.90
18175;DHT22;9212;50.894;16.714;2023-03-24T12:16:12;22.10;99.90
18175;DHT22;9212;50.894;16.714;2023-03-24T12:19:09;21.50;99.90
18175;DHT22;9212;50.894;16.714;2023-03-24T12:24:23;21.00;99.90
18175;DHT22;9212;50.894;16.714;2023-03-24T12:26:57;20.70;99.90
18175;DHT22;9212;50.894;16.714;2023-03-24T12:29:41;20.80;99.90
18175;DHT22;9212;50.894;16.714;2023-03-24T12:32:24;20.50;99.90
18175;DHT22;9212;50.894;16.714;2023-03-24T12:35:18;20.40;99.90
18175;DHT22;9212;50.894;16.714;2023-03-24T12:37:55;20.10;99.90
18175;DHT22;9212;50.894;16.714;2023-03-24T12:40:58;19.90;99.90
18175;DHT22;9212;50.894;16.714;2023-03-24T12:43:36;20.40;99.90
18175;DHT22;9212;50.894;16.714;2023-03-24T12:46:21;20.20;99.90
18175;DHT22;9212;50.894;16.714;2023-03-24T12:49:06;20.10;99.90
18175;DHT22;9212;50.894;16.714;2023-03-24T12:51:45;19.60;99.90
18175;DHT22;9212;50.894;16.714;2023-03-24T12:54:22;19.50;99.90
18175;DHT22;9212;50.894;16.714;2023-03-24T12:56:54;19.60;99.90
18175;DHT22;9212;50.894;16.714;2023-03-24T12:59:27;19.40;99.90
18175;DHT22;9212;50.894;16.714;2023-03-24T13:02:02;19.50;99.90
18175;DHT22;9212;50.894;16.714;2023-03-24T13:04:38;19.50;99.90
18175;DHT22;9212;50.894;16.714;2023-03-24T13:07:09;19.60;99.90
18175;DHT22;9212;50.894;16.714;2023-03-24T13:12:13;19.50;99.90
18175;DHT22;9212;50.894;16.714;2023-03-24T13:14:52;19.30;99.90
18175;DHT22;9212;50.894;16.714;2023-03-24T13:17:25;19.20;99.90
18175;DHT22;9212;50.894;16.714;2023-03-24T13:22:23;19.10;99.90
18175;DHT22;9212;50.894;16.714;2023-03-24T13:24:51;19.20;99.90
18175;DHT22;9212;50.894;16.714;2023-03-24T13:27:22;19.20;99.90
18175;DHT22;9212;50.894;16.714;2023-03-24T13:30:06;19.50;99.90
18175;DHT22;9212;50.894;16.714;2023-03-24T13:32:41;19.60;99.90
18175;DHT22;9212;50.894;16.714;2023-03-24T13:35:16;19.60;99.90
18175;DHT22;9212;50.894;16.714;2023-03-24T13:37:47;19.70;99.90
18175;DHT22;9212;50.894;16.714;2023-03-24T13:40:21;19.80;99.90
18175;DHT22;9212;50.894;16.714;2023-03-24T13:42:53;19.50;99.90
18175;DHT22;9212;50.894;16.714;2023-03-24T13:45:30;19.60;99.90
18175;DHT22;9212;50.894;16.714;2023-03-24T13:48:15;19.60;99.90
18175;DHT22;9212;50.894;16.714;2023-03-24T13:50:53;19.20;99.90
18175;DHT22;9212;50.894;16.714;2023-03-24T13:53:30;19.40;99.90
18175;DHT22;9212;50.894;16.714;2023-03-24T13:55:58;19.20;99.90
18175;DHT22;9212;50.894;16.714;2023-03-24T14:04:22;19.60;99.90
18175;DHT22;9212;50.894;16.714;2023-03-24T14:06:53;19.40;99.90
18175;DHT22;9212;50.894;16.714;2023-03-24T14:09:22;19.40;99.90
18175;DHT22;9212;50.894;16.714;2023-03-24T14:12:16;19.40;99.90
18175;DHT22;9212;50.894;16.714;2023-03-24T14:17:41;18.80;99.90
18175;DHT22;9212;50.894;16.714;2023-03-24T14:20:22;18.70;99.90
18175;DHT22;9212;50.894;16.714;2023-03-24T14:22:52;18.30;99.90
18175;DHT22;9212;50.894;16.714;2023-03-24T14:25:24;18.40;99.90
18175;DHT22;9212;50.894;16.714;2023-03-24T14:27:53;18.70;99.90
18175;DHT22;9212;50.894;16.714;2023-03-24T14:30:22;18.50;99.90
18175;DHT22;9212;50.894;16.714;2023-03-24T14:32:52;18.60;99.90
18175;DHT22;9212;50.894;16.714;2023-03-24T14:35:28;18.60;99.90
18175;DHT22;9212;50.894;16.714;2023-03-24T14:38:00;18.50;99.90
18175;DHT22;9212;50.894;16.714;2023-03-24T14:40:33;18.50;99.90
18175;DHT22;9212;50.894;16.714;2023-03-24T14:43:15;18.30;99.90
18175;DHT22;9212;50.894;16.714;2023-03-24T14:45:53;18.40;99.90
18175;DHT22;9212;50.894;16.714;2023-03-24T14:48:52;18.40;99.90
18175;DHT22;9212;50.894;16.714;2023-03-24T14:51:31;18.00;99.90
18175;DHT22;9212;50.894;16.714;2023-03-24T14:54:05;17.70;99.90
18175;DHT22;9212;50.894;16.714;2023-03-24T14:56:37;18.50;99.90
18175;DHT22;9212;50.894;16.714;2023-03-24T14:59:09;17.90;99.90
18175;DHT22;9212;50.894;16.714;2023-03-24T15:01:37;18.30;99.90
18175;DHT22;9212;50.894;16.714;2023-03-24T15:04:06;18.10;99.90
18175;DHT22;9212;50.894;16.714;2023-03-24T15:06:43;18.10;99.90
18175;DHT22;9212;50.894;16.714;2023-03-24T15:09:14;17.10;99.90
18175;DHT22;9212;50.894;16.714;2023-03-24T15:11:42;18.40;99.90
18175;DHT22;9212;50.894;16.714;2023-03-24T15:14:18;18.20;99.90
18175;DHT22;9212;50.894;16.714;2023-03-24T15:16:54;18.10;99.90
18175;DHT22;9212;50.894;16.714;2023-03-24T15:21:58;18.20;99.90
18175;DHT22;9212;50.894;16.714;2023-03-24T15:24:32;17.80;99.90
18175;DHT22;9212;50.894;16.714;2023-03-24T15:27:21;18.10;99.90
18175;DHT22;9212;50.894;16.714;2023-03-24T15:29:54;17.90;99.90
18175;DHT22;9212;50.894;16.714;2023-03-24T15:32:23;17.90;99.90
18175;DHT22;9212;50.894;16.714;2023-03-24T15:34:53;17.80;99.90
18175;DHT22;9212;50.894;16.714;2023-03-24T15:37:21;17.50;99.90
18175;DHT22;9212;50.894;16.714;2023-03-24T15:39:52;17.80;99.90
18175;DHT22;9212;50.894;16.714;2023-03-24T15:44:48;17.50;99.90
18175;DHT22;9212;50.894;16.714;2023-03-24T15:47:19;17.50;99.90
18175;DHT22;9212;50.894;16.714;2023-03-24T15:49:50;17.50;99.90
18175;DHT22;9212;50.894;16.714;2023-03-24T15:54:55;17.30;99.90
18175;DHT22;9212;50.894;16.714;2023-03-24T15:57:24;17.30;99.90
18175;DHT22;9212;50.894;16.714;2023-03-24T16:00:04;17.20;99.90
18175;DHT22;9212;50.894;16.714;2023-03-24T16:02:39;17.10;99.90
18175;DHT22;9212;50.894;16.714;2023-03-24T16:05:13;17.20;99.90
18175;DHT22;9212;50.894;16.714;2023-03-24T16:07:42;17.00;99.90
18175;DHT22;9212;50.894;16.714;2023-03-24T16:13:12;16.90;99.90
18175;DHT22;9212;50.894;16.714;2023-03-24T16:15:40;16.90;99.90
18175;DHT22;9212;50.894;16.714;2023-03-24T16:18:12;16.90;99.90
18175;DHT22;9212;50.894;16.714;2023-03-24T16:20:40;17.00;99.90
18175;DHT22;9212;50.894;16.714;2023-03-24T16:23:09;16.80;99.90
18175;DHT22;9212;50.894;16.714;2023-03-24T16:25:36;16.70;99.90
18175;DHT22;9212;50.894;16.714;2023-03-24T16:28:04;16.70;99.90
18175;DHT22;9212;50.894;16.714;2023-03-24T16:30:36;16.60;99.90
18175;DHT22;9212;50.894;16.714;2023-03-24T16:33:05;16.50;99.90
18175;DHT22;9212;50.894;16.714;2023-03-24T16:35:32;16.50;99.90
18175;DHT22;9212;50.894;16.714;2023-03-24T16:38:00;16.40;99.90
18175;DHT22;9212;50.894;16.714;2023-03-24T16:40:32;16.40;99.90
18175;DHT22;9212;50.894;16.714;2023-03-24T16:43:00;16.10;99.90
18175;DHT22;9212;50.894;16.714;2023-03-24T16:45:29;16.30;99.90
18175;DHT22;9212;50.894;16.714;2023-03-24T16:47:56;16.00;99.90
18175;DHT22;9212;50.894;16.714;2023-03-24T16:50:27;16.00;99.90
18175;DHT22;9212;50.894;16.714;2023-03-24T16:52:56;15.90;99.90
18175;DHT22;9212;50.894;16.714;2023-03-24T16:55:23;15.70;99.90
18175;DHT22;9212;50.894;16.714;2023-03-24T16:57:50;15.80;99.90
18175;DHT22;9212;50.894;16.714;2023-03-24T17:00:18;15.50;99.90
18175;DHT22;9212;50.894;16.714;2023-03-24T17:07:47;15.80;99.90
18175;DHT22;9212;50.894;16.714;2023-03-24T17:17:40;15.70;99.90
18175;DHT22;9212;50.894;16.714;2023-03-24T17:20:10;16.60;99.90
18175;DHT22;9212;50.894;16.714;2023-03-24T17:25:06;15.60;99.90
18175;DHT22;9212;50.894;16.714;2023-03-24T17:30:01;15.90;99.90
18175;DHT22;9212;50.894;16.714;2023-03-24T17:32:28;15.60;99.90
18175;DHT22;9212;50.894;16.714;2023-03-24T17:39:54;15.40;99.90
18175;DHT22;9212;50.894;16.714;2023-03-24T18:24:12;12.70;99.90
18175;DHT22;9212;50.894;16.714;2023-03-24T18:29:09;11.00;99.90
18175;DHT22;9212;50.894;16.714;2023-03-24T18:31:36;12.30;99.90
18175;DHT22;9212;50.894;16.714;2023-03-24T18:36:30;11.90;99.90
18175;DHT22;9212;50.894;16.714;2023-03-24T18:38:59;11.80;99.90
18175;DHT22;9212;50.894;16.714;2023-03-24T18:43:56;11.60;99.90
18175;DHT22;9212;50.894;16.714;2023-03-24T18:51:21;11.30;99.90
18175;DHT22;9212;50.894;16.714;2023-03-24T18:53:48;11.40;99.90
18175;DHT22;9212;50.894;16.714;2023-03-24T18:56:16;11.30;99.90
18175;DHT22;9212;50.894;16.714;2023-03-24T19:03:42;11.40;99.90
18175;DHT22;9212;50.894;16.714;2023-03-24T19:11:07;11.30;99.90
18175;DHT22;9212;50.894;16.714;2023-03-24T19:13:34;11.10;99.90
18175;DHT22;9212;50.894;16.714;2023-03-24T19:20:58;11.00;99.90
18175;DHT22;9212;50.894;16.714;2023-03-24T19:28:21;10.80;99.90
18175;DHT22;9212;50.894;16.714;2023-03-24T19:33:18;10.30;99.90
18175;DHT22;9212;50.894;16.714;2023-03-24T19:38:15;11.00;99.90
18175;DHT22;9212;50.894;16.714;2023-03-24T19:43:10;10.90;99.90
18175;DHT22;9212;50.894;16.714;2023-03-24T19:45:37;11.30;99.90
18175;DHT22;9212;50.894;16.714;2023-03-24T19:50:34;11.40;99.90
18175;DHT22;9212;50.894;16.714;2023-03-24T20:00:25;11.00;99.90
18175;DHT22;9212;50.894;16.714;2023-03-24T20:02:52;11.00;99.90
18175;DHT22;9212;50.894;16.714;2023-03-24T20:07:46;10.90;99.90
18175;DHT22;9212;50.894;16.714;2023-03-24T20:12:42;11.20;99.90
18175;DHT22;9212;50.894;16.714;2023-03-24T20:15:10;11.10;99.90
18175;DHT22;9212;50.894;16.714;2023-03-24T20:20:07;11.10;99.90
18175;DHT22;9212;50.894;16.714;2023-03-24T20:29:58;10.70;99.90
18175;DHT22;9212;50.894;16.714;2023-03-24T20:42:15;11.00;99.90
18175;DHT22;9212;50.894;16.714;2023-03-24T20:49:41;10.60;99.90
18175;DHT22;9212;50.894;16.714;2023-03-24T20:52:09;10.50;99.90
18175;DHT22;9212;50.894;16.714;2023-03-24T20:59:31;10.40;99.90
18175;DHT22;9212;50.894;16.714;2023-03-24T21:01:58;10.60;99.90
18175;DHT22;9212;50.894;16.714;2023-03-24T21:04:28;10.40;99.90
18175;DHT22;9212;50.894;16.714;2023-03-24T21:06:54;10.30;99.90
18175;DHT22;9212;50.894;16.714;2023-03-24T21:09:22;10.30;99.90
18175;DHT22;9212;50.894;16.714;2023-03-24T21:11:49;10.40;99.90
18175;DHT22;9212;50.894;16.714;2023-03-24T21:14:16;10.60;99.90
18175;DHT22;9212;50.894;16.714;2023-03-24T21:21:39;10.30;99.90
18175;DHT22;9212;50.894;16.714;2023-03-24T21:24:07;10.20;99.90
18175;DHT22;9212;50.894;16.714;2023-03-24T21:26:37;10.00;99.90
18175;DHT22;9212;50.894;16.714;2023-03-24T21:29:04;9.90;99.90
18175;DHT22;9212;50.894;16.714;2023-03-24T21:34:00;10.00;99.90
18175;DHT22;9212;50.894;16.714;2023-03-24T21:36:27;9.90;99.90
18175;DHT22;9212;50.894;16.714;2023-03-24T21:38:57;9.90;99.90
18175;DHT22;9212;50.894;16.714;2023-03-24T21:41:24;9.60;99.90
18175;DHT22;9212;50.894;16.714;2023-03-24T21:43:51;9.40;99.90
18175;DHT22;9212;50.894;16.714;2023-03-24T21:46:19;9.50;99.90
18175;DHT22;9212;50.894;16.714;2023-03-24T21:48:47;8.80;99.90
18175;DHT22;9212;50.894;16.714;2023-03-24T21:51:21;9.20;99.90
18175;DHT22;9212;50.894;16.714;2023-03-24T21:53:48;8.80;99.90
18175;DHT22;9212;50.894;16.714;2023-03-24T21:56:17;9.00;99.90
18175;DHT22;9212;50.894;16.714;2023-03-24T21:58:45;9.00;99.90
18175;DHT22;9212;50.894;16.714;2023-03-24T22:01:12;9.10;99.90
18175;DHT22;9212;50.894;16.714;2023-03-24T22:03:39;9.20;99.90
18175;DHT22;9212;50.894;16.714;2023-03-24T22:06:06;8.80;99.90
18175;DHT22;9212;50.894;16.714;2023-03-24T22:08:35;9.10;99.90
18175;DHT22;9212;50.894;16.714;2023-03-24T22:11:04;8.80;99.90
18175;DHT22;9212;50.894;16.714;2023-03-24T22:13:33;8.90;99.90
18175;DHT22;9212;50.894;16.714;2023-03-24T22:16:02;9.00;99.90
18175;DHT22;9212;50.894;16.714;2023-03-24T22:18:31;8.20;99.90
18175;DHT22;9212;50.894;16.714;2023-03-24T22:21:00;9.00;99.90
18175;DHT22;9212;50.894;16.714;2023-03-24T22:23:28;9.10;99.90
18175;DHT22;9212;50.894;16.714;2023-03-24T22:25:58;9.00;99.90
18175;DHT22;9212;50.894;16.714;2023-03-24T22:28:26;8.90;99.90
18175;DHT22;9212;50.894;16.714;2023-03-24T22:30:59;8.80;99.90
18175;DHT22;9212;50.894;16.714;2023-03-24T22:33:27;8.60;99.90
18175;DHT22;9212;50.894;16.714;2023-03-24T22:35:54;8.50;99.90
18175;DHT22;9212;50.894;16.714;2023-03-24T22:38:22;8.70;99.90
18175;DHT22;9212;50.894;16.714;2023-03-24T22:40:49;8.70;99.90
18175;DHT22;9212;50.894;16.714;2023-03-24T22:43:16;8.90;99.90
18175;DHT22;9212;50.894;16.714;2023-03-24T22:45:44;8.70;99.90
18175;DHT22;9212;50.894;16.714;2023-03-24T22:48:12;8.80;99.90
18175;DHT22;9212;50.894;16.714;2023-03-24T22:50:40;8.50;99.90
18175;DHT22;9212;50.894;16.714;2023-03-24T22:53:08;8.20;99.90
18175;DHT22;9212;50.894;16.714;2023-03-24T22:55:36;8.20;99.90
18175;DHT22;9212;50.894;16.714;2023-03-24T22:58:03;8.30;99.90
18175;DHT22;9212;50.894;16.714;2023-03-24T23:00:31;8.50;99.90
18175;DHT22;9212;50.894;16.714;2023-03-24T23:02:58;8.50;99.90
18175;DHT22;9212;50.894;16.714;2023-03-24T23:05:27;8.40;99.90
18175;DHT22;9212;50.894;16.714;2023-03-24T23:07:54;8.50;99.90
18175;DHT22;9212;50.894;16.714;2023-03-24T23:10:21;8.80;99.90
18175;DHT22;9212;50.894;16.714;2023-03-24T23:12:48;8.90;99.90
18175;DHT22;9212;50.894;16.714;2023-03-24T23:15:17;9.00;99.90
18175;DHT22;9212;50.894;16.714;2023-03-24T23:17:48;9.20;99.90
18175;DHT22;9212;50.894;16.714;2023-03-24T23:20:15;9.40;99.90
18175;DHT22;9212;50.894;16.714;2023-03-24T23:25:13;9.50;99.90
18175;DHT22;9212;50.894;16.714;2023-03-24T23:27:44;9.30;99.90
18175;DHT22;9212;50.894;16.714;2023-03-24T23:30:13;9.30;99.90